LDDU/DBV METAR and TAF weather

Enter ICAO airport designator
Station Type Date Time Source
LDDU METAR 2019/10/15 21:00 UTC NOAA

LDDU 152100Z VRB01KT CAVOK 16/11 Q1018 NOSIG


Station Type Date Time Source
LDDU Decoded METAR 2019/10/15 21:00 UTC NOAA

Dubrovnik / Cilipi, Croatia (LDDU) 42-34N 018-16E 165M
Oct 15, 2019 - 05:00 PM EDT / 2019.10.15 2100 UTC
Wind: Variable at 1 MPH (1 KT):0
Visibility: greater than 7 mile(s):0
Temperature: 60 F (16 C)
Dew Point: 51 F (11 C)
Relative Humidity: 72%
Pressure (altimeter): 30.06 in. Hg (1018 hPa)
ob: LDDU 152100Z VRB01KT CAVOK 16/11 Q1018 NOSIG
cycle: 21

Station Type Date Time Source
LDDU TAF 2019/10/15 18:27 UTC NOAA

TAF TAF LDDU 151725Z 1518/1618 08006KT CAVOK TX23/1611Z TN15/1605Z
BECMG 1607/1609 15012KT

Example: see airport list